Time,TemperatureF,DewpointF,PressureIn,WindDirection,WindDirectionDegrees,WindSpeedMPH,WindSpeedGustMPH,Humidity,HourlyPrecipIn,Conditions,Clouds,dailyrainin,SoftwareType,DateUTC
2013-09-22 00:03:00,48.0,47.0,-100.00,WNW,290,0.0,0.0,97,0.00,,,-99.99,,2013-09-22 05:03:00,
2013-09-22 00:10:00,46.0,45.0,-100.00,WSW,250,0.0,0.0,98,0.00,,,-99.99,,2013-09-22 05:10:00,
2013-09-22 00:43:00,46.0,45.0,-100.00,WSW,250,0.0,0.0,98,0.00,,,-99.99,,2013-09-22 05:43:00,
2013-09-22 00:53:00,46.0,45.0,-100.00,WSW,250,0.0,0.0,98,0.00,,,-99.99,,2013-09-22 05:53:00,
2013-09-22 01:02:00,46.0,45.0,-100.00,WSW,250,0.0,0.0,98,0.00,,,-99.99,,2013-09-22 06:02:00,
2013-09-22 01:42:00,46.0,45.0,-100.00,WNW,295,0.0,0.0,99,0.00,,,-99.99,,2013-09-22 06:42:00,
2013-09-22 01:52:00,46.0,45.0,-100.00,WNW,295,0.0,0.0,99,0.00,,,-99.99,,2013-09-22 06:52:00,
2013-09-22 02:02:00,46.0,45.0,-100.00,WNW,295,0.0,0.0,99,0.00,,,-99.99,,2013-09-22 07:02:00,
2013-09-22 02:42:00,43.0,42.0,-100.00,ESE,115,0.0,0.0,97,0.00,,,-99.99,,2013-09-22 07:42:00,
2013-09-22 02:52:00,43.0,42.0,-100.00,ESE,115,0.0,0.0,97,0.00,,,-99.99,,2013-09-22 07:52:00,
2013-09-22 03:04:00,43.0,42.0,-100.00,ESE,115,0.0,0.0,97,0.00,,,-99.99,,2013-09-22 08:04:00,
2013-09-22 03:10:00,42.0,41.0,-100.00,ESE,110,0.0,0.0,99,0.00,,,-99.99,,2013-09-22 08:10:00,
2013-09-22 03:42:00,42.0,41.0,-100.00,ESE,110,0.0,0.0,99,0.00,,,-99.99,,2013-09-22 08:42:00,
2013-09-22 03:52:00,42.0,41.0,-100.00,ESE,110,0.0,0.0,99,0.00,,,-99.99,,2013-09-22 08:52:00,
2013-09-22 04:02:00,42.0,41.0,-100.00,ESE,110,0.0,0.0,99,0.00,,,-99.99,,2013-09-22 09:02:00,
2013-09-22 04:43:00,41.0,41.0,-100.00,ESE,120,0.0,0.0,99,0.00,,,-99.99,,2013-09-22 09:43:00,
2013-09-22 04:54:00,41.0,41.0,-100.00,ESE,120,0.0,0.0,99,0.00,,,-99.99,,2013-09-22 09:54:00,
2013-09-22 05:03:00,41.0,41.0,-100.00,ESE,120,0.0,0.0,99,0.00,,,-99.99,,2013-09-22 10:03:00,
2013-09-22 05:44:00,40.0,40.0,-100.00,ESE,110,0.0,0.0,99,0.00,,,-99.99,,2013-09-22 10:44:00,
2013-09-22 05:53:00,40.0,40.0,-100.00,ESE,110,0.0,0.0,99,0.00,,,-99.99,,2013-09-22 10:53:00,
2013-09-22 06:42:00,40.0,39.0,-100.00,ESE,110,0.0,0.0,99,0.00,,,-99.99,,2013-09-22 11:42:00,
2013-09-22 06:52:00,40.0,39.0,-100.00,ESE,110,0.0,0.0,99,0.00,,,-99.99,,2013-09-22 11:52:00,
2013-09-22 07:02:00,40.0,39.0,-100.00,ESE,110,0.0,0.0,99,0.00,,,-99.99,,2013-09-22 12:02:00,
2013-09-22 07:42:00,39.0,39.0,-100.00,ESE,105,0.0,0.0,99,0.00,,,-99.99,,2013-09-22 12:42:00,
2013-09-22 07:52:00,39.0,39.0,-100.00,ESE,105,0.0,0.0,99,0.00,,,-99.99,,2013-09-22 12:52:00,
2013-09-22 08:02:00,39.0,39.0,-100.00,ESE,105,0.0,0.0,99,0.00,,,-99.99,,2013-09-22 13:02:00,
2013-09-22 08:42:00,42.0,42.0,-100.00,East,100,0.0,0.0,99,0.00,,,-99.99,,2013-09-22 13:42:00,
2013-09-22 08:52:00,42.0,42.0,-100.00,East,100,0.0,0.0,99,0.00,,,-99.99,,2013-09-22 13:52:00,
2013-09-22 09:02:00,42.0,42.0,-100.00,East,100,0.0,0.0,99,0.00,,,-99.99,,2013-09-22 14:02:00,
2013-09-22 09:10:00,48.0,48.0,-100.00,East,100,0.0,0.0,99,0.00,,,-99.99,,2013-09-22 14:10:00,
2013-09-22 09:42:00,48.0,48.0,-100.00,East,100,0.0,0.0,99,0.00,,,-99.99,,2013-09-22 14:42:00,
2013-09-22 09:52:00,48.0,48.0,-100.00,East,100,0.0,0.0,99,0.00,,,-99.99,,2013-09-22 14:52:00,
2013-09-22 10:02:00,48.0,48.0,-100.00,East,100,0.0,0.0,99,0.00,,,-99.99,,2013-09-22 15:02:00,
2013-09-22 10:44:00,53.0,43.0,-100.00,East,95,0.0,0.0,68,0.00,,,-99.99,,2013-09-22 15:44:00,
2013-09-22 10:55:00,53.0,43.0,-100.00,East,95,0.0,0.0,68,0.00,,,-99.99,,2013-09-22 15:55:00,
2013-09-22 11:04:00,53.0,43.0,-100.00,East,95,0.0,0.0,68,0.00,,,-99.99,,2013-09-22 16:04:00,
2013-09-22 11:43:00,57.0,43.0,-100.00,ESE,115,0.0,0.0,61,0.00,,,-99.99,,2013-09-22 16:43:00,
2013-09-22 11:54:00,57.0,43.0,-100.00,ESE,115,0.0,0.0,61,0.00,,,-99.99,,2013-09-22 16:54:00,
2013-09-22 12:03:00,57.0,43.0,-100.00,ESE,115,0.0,0.0,61,0.00,,,-99.99,,2013-09-22 17:03:00,
2013-09-22 12:10:00,61.0,44.0,-100.00,ESE,115,0.0,0.0,54,0.00,,,-99.99,,2013-09-22 17:10:00,
2013-09-22 12:43:00,61.0,44.0,-100.00,ESE,115,0.0,0.0,54,0.00,,,-99.99,,2013-09-22 17:43:00,
2013-09-22 12:53:00,61.0,44.0,-100.00,ESE,115,0.0,0.0,54,0.00,,,-99.99,,2013-09-22 17:53:00,
2013-09-22 13:02:00,61.0,44.0,-100.00,ESE,115,0.0,0.0,54,0.00,,,-99.99,,2013-09-22 18:02:00,
2013-09-22 13:42:00,61.0,44.0,-100.00,ESE,105,0.0,0.0,54,0.00,,,-99.99,,2013-09-22 18:42:00,
2013-09-22 13:52:00,61.0,44.0,-100.00,ESE,105,0.0,0.0,54,0.00,,,-99.99,,2013-09-22 18:52:00,
2013-09-22 14:02:00,61.0,44.0,-100.00,ESE,105,0.0,0.0,54,0.00,,,-99.99,,2013-09-22 19:02:00,
2013-09-22 14:42:00,63.0,45.0,-100.00,East,95,0.0,0.0,53,0.00,,,-99.99,,2013-09-22 19:42:00,
2013-09-22 14:52:00,63.0,45.0,-100.00,East,95,0.0,0.0,53,0.00,,,-99.99,,2013-09-22 19:52:00,
2013-09-22 15:03:00,63.0,45.0,-100.00,East,95,0.0,0.0,53,0.00,,,-99.99,,2013-09-22 20:03:00,
2013-09-22 15:10:00,63.0,45.0,-100.00,East,95,0.0,0.0,51,0.00,,,-99.99,,2013-09-22 20:10:00,
2013-09-22 15:42:00,63.0,45.0,-100.00,East,95,0.0,0.0,51,0.00,,,-99.99,,2013-09-22 20:42:00,
2013-09-22 15:52:00,63.0,45.0,-100.00,East,95,0.0,0.0,51,0.00,,,-99.99,,2013-09-22 20:52:00,
2013-09-22 16:02:00,63.0,45.0,-100.00,East,95,0.0,0.0,51,0.00,,,-99.99,,2013-09-22 21:02:00,
2013-09-22 16:45:00,65.0,44.0,-100.00,ESE,115,0.0,0.0,48,0.00,,,-99.99,,2013-09-22 21:45:00,
2013-09-22 16:54:00,65.0,44.0,-100.00,ESE,115,0.0,0.0,48,0.00,,,-99.99,,2013-09-22 21:54:00,
2013-09-22 17:04:00,65.0,44.0,-100.00,ESE,115,0.0,0.0,48,0.00,,,-99.99,,2013-09-22 22:04:00,
2013-09-22 17:10:00,63.0,45.0,-100.00,ESE,120,0.0,0.0,52,0.00,,,-99.99,,2013-09-22 22:10:00,
2013-09-22 17:43:00,63.0,45.0,-100.00,ESE,120,0.0,0.0,52,0.00,,,-99.99,,2013-09-22 22:43:00,
2013-09-22 17:54:00,63.0,45.0,-100.00,ESE,120,0.0,0.0,52,0.00,,,-99.99,,2013-09-22 22:54:00,
2013-09-22 18:03:00,63.0,45.0,-100.00,ESE,120,0.0,0.0,52,0.00,,,-99.99,,2013-09-22 23:03:00,
2013-09-22 18:43:00,60.0,46.0,-100.00,East,95,0.0,0.0,59,0.00,,,-99.99,,2013-09-22 23:43:00,
2013-09-22 18:52:00,60.0,46.0,-100.00,East,95,0.0,0.0,59,0.00,,,-99.99,,2013-09-22 23:52:00,
2013-09-22 19:01:00,60.0,46.0,-100.00,East,95,0.0,0.0,59,0.00,,,-99.99,,2013-09-23 00:01:00,
2013-09-22 19:42:00,56.0,49.0,-100.00,SE,135,0.0,0.0,77,0.00,,,-99.99,,2013-09-23 00:42:00,
2013-09-22 19:53:00,56.0,49.0,-100.00,SE,135,0.0,0.0,77,0.00,,,-99.99,,2013-09-23 00:53:00,
2013-09-22 20:01:00,56.0,49.0,-100.00,SE,135,0.0,0.0,77,0.00,,,-99.99,,2013-09-23 01:01:00,
2013-09-22 20:43:00,53.0,50.0,-100.00,ESE,120,0.0,0.0,90,0.00,,,-99.99,,2013-09-23 01:43:00,
2013-09-22 20:52:00,53.0,50.0,-100.00,ESE,120,0.0,0.0,90,0.00,,,-99.99,,2013-09-23 01:52:00,
2013-09-22 21:02:00,53.0,50.0,-100.00,ESE,120,0.0,0.0,90,0.00,,,-99.99,,2013-09-23 02:02:00,
2013-09-22 21:42:00,51.0,49.0,-100.00,ESE,110,0.0,0.0,93,0.00,,,-99.99,,2013-09-23 02:42:00,
2013-09-22 21:52:00,51.0,49.0,-100.00,ESE,110,0.0,0.0,93,0.00,,,-99.99,,2013-09-23 02:52:00,
2013-09-22 22:03:00,51.0,49.0,-100.00,ESE,110,0.0,0.0,93,0.00,,,-99.99,,2013-09-23 03:03:00,
2013-09-22 23:43:00,49.0,46.0,-100.00,ESE,110,0.0,0.0,92,0.00,,,-99.99,,2013-09-23 04:43:00,
2013-09-22 23:54:00,49.0,46.0,-100.00,ESE,110,0.0,0.0,92,0.00,,,-99.99,,2013-09-23 04:54:00,